createdAt,value
2023-03-04T00:00:32.784Z,87.93
2023-03-04T00:02:35.409Z,94.22
2023-03-04T00:04:37.967Z,82.28
2023-03-04T00:06:40.557Z,85.07
2023-03-04T00:08:44.458Z,92.10
2023-03-04T00:10:47.438Z,95.97
2023-03-04T00:12:49.985Z,92.32
2023-03-04T00:14:52.574Z,79.50
2023-03-04T00:16:55.139Z,93.05
2023-03-04T00:18:58.411Z,85.70
2023-03-04T00:21:01.312Z,80.53
2023-03-04T00:23:03.878Z,92.43
2023-03-04T00:25:08.696Z,86.25
2023-03-04T00:27:11.284Z,87.63
2023-03-04T00:29:13.810Z,80.72
2023-03-04T00:31:16.530Z,86.93
2023-03-04T00:33:19.167Z,90.07
2023-03-04T00:35:21.763Z,82.25
2023-03-04T00:37:24.383Z,80.20
2023-03-04T00:39:26.907Z,83.40
2023-03-04T00:41:30.823Z,86.05
2023-03-04T00:43:33.616Z,76.78
2023-03-04T00:45:36.269Z,83.35
2023-03-04T00:47:38.983Z,89.57
2023-03-04T00:49:41.554Z,80.93
2023-03-04T00:51:44.105Z,82.60
2023-03-04T00:53:47.403Z,81.65
2023-03-04T00:55:49.986Z,82.25
2023-03-04T00:57:53.924Z,84.30
2023-03-04T00:59:56.584Z,83.03
2023-03-04T01:01:59.143Z,86.95
2023-03-04T01:04:01.698Z,86.07
2023-03-04T01:06:04.384Z,82.22
2023-03-04T01:08:07.415Z,89.68
2023-03-04T01:10:11.991Z,83.45
2023-03-04T01:12:14.569Z,87.65
2023-03-04T01:14:18.523Z,86.22
2023-03-04T01:16:21.162Z,80.63
2023-03-04T01:18:23.774Z,80.95
2023-03-04T01:20:26.535Z,86.47
2023-03-04T01:22:29.109Z,83.95
2023-03-04T01:24:31.762Z,79.43
2023-03-04T01:26:34.433Z,81.13
2023-03-04T01:28:36.976Z,83.80
2023-03-04T01:30:41.035Z,85.85
2023-03-04T01:32:43.624Z,90.70
2023-03-04T01:34:46.232Z,81.40
2023-03-04T01:36:48.769Z,92.78
2023-03-04T01:38:51.345Z,83.53
2023-03-04T01:40:54.407Z,84.70
2023-03-04T01:42:56.001Z,94.38
2023-03-04T01:47:02.397Z,89.88
2023-03-04T01:49:05.068Z,89.30
2023-03-04T01:51:13.562Z,88.80
2023-03-04T01:53:21.950Z,94.88
2023-03-04T01:55:24.716Z,93.57
2023-03-04T01:57:27.652Z,88.07
2023-03-04T01:59:32.583Z,89.68
2023-03-04T02:01:35.268Z,95.68
2023-03-04T02:03:39.833Z,83.47
2023-03-04T02:05:45.366Z,83.07
2023-03-04T02:07:48.046Z,88.53
2023-03-04T02:09:50.610Z,81.65
2023-03-04T02:11:53.493Z,84.45
2023-03-04T02:13:56.143Z,78.22
2023-03-04T02:15:58.730Z,80.03
2023-03-04T02:18:01.809Z,81.47
2023-03-04T02:20:16.524Z,78.47
2023-03-04T02:22:19.156Z,87.32
2023-03-04T02:24:27.857Z,85.20
2023-03-04T02:26:32.828Z,75.72
2023-03-04T02:28:35.408Z,79.10
2023-03-04T02:30:38.135Z,82.10
2023-03-04T02:32:40.709Z,83.63
2023-03-04T02:34:47.772Z,82.68
2023-03-04T02:36:52.870Z,87.03
2023-03-04T02:38:56.856Z,85.93
2023-03-04T02:40:59.968Z,85.35
2023-03-04T02:43:03.876Z,80.82
2023-03-04T02:45:07.627Z,82.53
2023-03-04T02:47:12.145Z,85.85
2023-03-04T02:49:14.781Z,87.05
2023-03-04T02:51:17.743Z,81.80
2023-03-04T02:53:21.694Z,82.78
2023-03-04T02:55:24.240Z,84.40
2023-03-04T02:57:26.759Z,90.80
2023-03-04T02:59:31.258Z,90.47
2023-03-04T03:01:33.875Z,97.82
2023-03-04T03:03:36.510Z,81.45
2023-03-04T03:05:42.475Z,86.20
2023-03-04T03:07:45.231Z,82.80
2023-03-04T03:09:50.417Z,78.63
2023-03-04T03:11:52.962Z,81.95
2023-03-04T03:13:55.505Z,79.68
2023-03-04T03:15:59.412Z,86.47
2023-03-04T03:18:01.988Z,80.97
2023-03-04T03:20:05.454Z,81.50
2023-03-04T03:22:08.088Z,84.95
2023-03-04T03:24:10.626Z,88.78
2023-03-04T03:26:13.242Z,80.70
2023-03-04T03:28:15.795Z,92.30
2023-03-04T03:30:18.412Z,88.07
2023-03-04T03:32:22.370Z,83.32
2023-03-04T03:34:25.166Z,87.45
2023-03-04T03:36:28.767Z,84.47
2023-03-04T03:38:31.442Z,93.10
2023-03-04T03:40:34.052Z,88.22
2023-03-04T03:42:36.723Z,93.10
2023-03-04T03:44:39.250Z,81.88
2023-03-04T03:46:41.820Z,98.05
2023-03-04T03:48:45.728Z,90.25
2023-03-04T03:50:48.315Z,96.13
2023-03-04T03:52:50.858Z,95.00
2023-03-04T03:54:56.105Z,100.60
2023-03-04T03:56:58.660Z,92.35
2023-03-04T03:59:01.221Z,89.45
2023-03-04T04:01:03.802Z,87.47
2023-03-04T04:03:06.776Z,92.50
2023-03-04T04:05:11.634Z,93.38
2023-03-04T04:07:14.181Z,95.28
2023-03-04T04:09:16.750Z,97.13
2023-03-04T04:11:19.706Z,87.88
2023-03-04T04:13:22.267Z,91.35
2023-03-04T04:15:24.802Z,84.30
2023-03-04T04:17:27.504Z,89.35
2023-03-04T04:19:30.070Z,92.60
2023-03-04T04:21:34.127Z,84.57
2023-03-04T04:23:36.772Z,89.72
2023-03-04T04:25:39.330Z,83.97
2023-03-04T04:27:41.878Z,83.13
2023-03-04T04:29:44.450Z,89.60
2023-03-04T04:31:46.987Z,85.93
2023-03-04T04:33:49.527Z,87.57
2023-03-04T04:35:52.169Z,78.20
2023-03-04T04:37:56.077Z,90.10
2023-03-04T04:39:58.616Z,90.25
2023-03-04T04:42:01.248Z,95.60
2023-03-04T04:44:03.937Z,83.88
2023-03-04T04:46:06.610Z,93.25
2023-03-04T04:48:09.188Z,93.03
2023-03-04T04:50:12.811Z,84.07
2023-03-04T04:52:15.392Z,84.35
2023-03-04T04:54:19.300Z,85.63
2023-03-04T04:56:25.043Z,76.38
2023-03-04T04:58:27.569Z,85.82
2023-03-04T05:00:30.139Z,78.82
2023-03-04T05:02:36.256Z,79.18
2023-03-04T05:04:38.840Z,88.05
2023-03-04T05:06:41.520Z,81.57
2023-03-04T05:08:44.060Z,86.88
2023-03-04T05:10:48.762Z,89.32
2023-03-04T05:12:51.393Z,84.82
2023-03-04T05:14:53.944Z,83.60
2023-03-04T05:16:56.516Z,91.22
2023-03-04T05:18:59.069Z,87.45
2023-03-04T05:21:03.556Z,87.15
2023-03-04T05:23:06.218Z,80.20
2023-03-04T05:25:09.317Z,81.40
2023-03-04T05:27:13.322Z,84.15
2023-03-04T05:29:15.970Z,91.68
2023-03-04T05:31:18.846Z,86.93
2023-03-04T05:33:21.857Z,89.72
2023-03-04T05:35:24.706Z,88.75
2023-03-04T05:37:27.942Z,87.43
2023-03-04T05:39:30.468Z,90.88
2023-03-04T05:41:33.016Z,97.82
2023-03-04T05:43:38.403Z,92.28
2023-03-04T05:45:41.495Z,94.65
2023-03-04T05:47:44.069Z,86.38
2023-03-04T05:49:46.623Z,84.70
2023-03-04T05:51:49.170Z,83.50
2023-03-04T05:53:51.728Z,88.47
2023-03-04T05:55:54.595Z,89.95
2023-03-04T05:57:57.329Z,87.82
2023-03-04T06:00:01.314Z,91.50
2023-03-04T06:02:03.897Z,85.22
2023-03-04T06:04:06.581Z,84.65
2023-03-04T06:06:09.291Z,94.18
2023-03-04T06:08:12.392Z,78.63
2023-03-04T06:10:17.506Z,84.53
2023-03-04T06:12:20.166Z,86.22
2023-03-04T06:14:22.747Z,81.90
2023-03-04T06:16:26.673Z,81.82
2023-03-04T06:18:29.860Z,79.03
2023-03-04T06:20:32.733Z,80.55
2023-03-04T06:22:35.764Z,85.78
2023-03-04T06:24:38.655Z,81.28
2023-03-04T06:26:41.235Z,78.53
2023-03-04T06:28:44.766Z,77.05
2023-03-04T06:30:47.365Z,80.63
2023-03-04T06:32:51.235Z,88.15
2023-03-04T06:34:53.793Z,76.28
2023-03-04T06:36:56.378Z,82.45
2023-03-04T06:38:58.937Z,89.50
2023-03-04T06:41:08.004Z,83.65
2023-03-04T06:43:10.537Z,76.13
2023-03-04T06:45:13.608Z,84.90
2023-03-04T06:47:16.562Z,85.85
2023-03-04T06:49:20.461Z,85.47
2023-03-04T06:51:22.997Z,85.57
2023-03-04T06:53:25.606Z,85.72
2023-03-04T06:55:28.276Z,84.82
2023-03-04T06:57:30.859Z,83.97
2023-03-04T06:59:33.425Z,84.45
2023-03-04T07:01:36.622Z,82.68
2023-03-04T07:03:39.249Z,79.43
2023-03-04T07:05:43.473Z,82.65
2023-03-04T07:07:46.159Z,78.18
2023-03-04T07:09:48.714Z,77.18
2023-03-04T07:11:51.241Z,79.68
2023-03-04T07:13:54.207Z,86.60
2023-03-04T07:15:56.752Z,81.43
2023-03-04T07:17:59.336Z,85.40
2023-03-04T07:20:01.862Z,83.35
2023-03-04T07:22:05.774Z,84.80
2023-03-04T07:24:08.355Z,85.65
2023-03-04T07:26:10.967Z,86.65
2023-03-04T07:28:13.617Z,82.70
2023-03-04T07:30:16.505Z,87.60
2023-03-04T07:32:19.206Z,79.32
2023-03-04T07:34:21.853Z,85.88
2023-03-04T07:36:27.589Z,81.93
2023-03-04T07:38:31.513Z,83.97
2023-03-04T07:40:34.632Z,84.97
2023-03-04T07:42:37.219Z,86.15
2023-03-04T07:44:39.861Z,88.40
2023-03-04T07:46:42.414Z,81.35
2023-03-04T07:48:45.017Z,78.82
2023-03-04T07:50:47.554Z,83.57
2023-03-04T07:52:50.906Z,81.63
2023-03-04T07:54:54.886Z,85.18
2023-03-04T07:56:57.450Z,79.30
2023-03-04T07:59:00.314Z,88.45
2023-03-04T08:01:02.871Z,84.93
2023-03-04T08:03:05.499Z,80.82
2023-03-04T08:05:08.892Z,89.03
2023-03-04T08:07:11.486Z,90.32
2023-03-04T08:09:14.068Z,79.75
2023-03-04T08:11:20.440Z,84.30
2023-03-04T08:13:25.762Z,78.90
2023-03-04T08:15:32.759Z,75.18
2023-03-04T08:17:35.710Z,75.00
2023-03-04T08:19:38.269Z,75.78
2023-03-04T08:21:40.855Z,77.50
2023-03-04T08:23:43.678Z,79.32
2023-03-04T08:25:46.766Z,73.45
2023-03-04T08:27:50.661Z,76.65
2023-03-04T08:29:53.223Z,68.43
2023-03-04T08:31:56.683Z,73.05
2023-03-04T08:33:59.412Z,65.18
2023-03-04T08:36:01.992Z,71.25
2023-03-04T08:38:04.617Z,69.25
2023-03-04T08:40:08.339Z,69.55
2023-03-04T08:42:10.970Z,63.47
2023-03-04T08:44:15.456Z,62.25
2023-03-04T08:46:18.111Z,65.10
2023-03-04T08:48:21.548Z,63.03
2023-03-04T08:50:24.117Z,60.20
2023-03-04T08:52:26.985Z,60.58
2023-03-04T08:54:29.515Z,58.25
2023-03-04T08:56:32.232Z,62.40
2023-03-04T08:58:35.259Z,65.15
2023-03-04T09:00:42.897Z,58.53
2023-03-04T09:02:45.456Z,62.97
2023-03-04T09:04:48.034Z,62.97
2023-03-04T09:06:52.259Z,64.15
2023-03-04T09:08:56.170Z,63.38
2023-03-04T09:10:58.748Z,61.67
2023-03-04T09:13:01.763Z,60.50
2023-03-04T09:15:11.662Z,59.38
2023-03-04T09:17:15.913Z,63.97
2023-03-04T09:19:18.504Z,63.78
2023-03-04T09:21:21.071Z,62.22
2023-03-04T09:23:24.091Z,60.15
2023-03-04T09:25:26.787Z,58.45
2023-03-04T09:27:29.404Z,61.78
2023-03-04T09:29:31.980Z,56.63
2023-03-04T09:31:34.597Z,57.38
2023-03-04T09:33:38.679Z,55.47
2023-03-04T09:35:41.647Z,57.10
2023-03-04T09:37:44.585Z,55.60
2023-03-04T09:39:47.181Z,48.92
2023-03-04T09:41:56.275Z,46.90
2023-03-04T09:43:59.165Z,51.42
2023-03-04T09:46:05.548Z,50.97
2023-03-04T09:48:11.068Z,48.80
2023-03-04T09:50:15.329Z,49.33
2023-03-04T09:52:30.152Z,47.53
2023-03-04T09:54:57.355Z,44.05
2023-03-04T09:57:17.204Z,49.08
2023-03-04T09:59:26.471Z,47.30
2023-03-04T10:01:35.252Z,54.50
2023-03-04T10:03:48.174Z,48.80
2023-03-04T10:05:55.898Z,43.03
2023-03-04T10:08:01.762Z,52.83
2023-03-04T10:10:08.032Z,46.17
2023-03-04T10:12:15.888Z,48.58
2023-03-04T10:14:36.637Z,49.72
2023-03-04T10:16:44.073Z,47.30
2023-03-04T10:18:53.366Z,49.58
2023-03-04T10:21:01.537Z,47.40
2023-03-04T10:23:11.149Z,47.20
2023-03-04T10:25:20.165Z,51.45
2023-03-04T10:27:23.720Z,47.78
2023-03-04T10:29:26.261Z,50.70
2023-03-04T10:31:36.554Z,52.03
2023-03-04T10:33:41.125Z,48.75
2023-03-04T10:35:46.418Z,43.75
2023-03-04T10:37:52.033Z,52.53
2023-03-04T10:39:54.703Z,51.85
2023-03-04T10:42:00.996Z,47.20
2023-03-04T10:44:05.345Z,46.05
2023-03-04T10:46:11.395Z,46.85
2023-03-04T10:48:25.850Z,47.15
2023-03-04T10:50:29.723Z,46.65
2023-03-04T10:52:36.880Z,44.15
2023-03-04T10:54:48.396Z,40.65
2023-03-04T10:56:56.981Z,42.38
2023-03-04T10:59:41.408Z,44.00
2023-03-04T11:01:43.974Z,43.63
2023-03-04T11:03:50.118Z,46.10
2023-03-04T11:06:04.538Z,40.20
2023-03-04T11:08:07.083Z,45.80
2023-03-04T11:10:16.554Z,42.15
2023-03-04T11:12:22.191Z,45.80
2023-03-04T11:14:29.304Z,47.65
2023-03-04T11:16:34.877Z,47.72
2023-03-04T11:18:43.553Z,47.33
2023-03-04T11:20:49.310Z,51.55
2023-03-04T11:22:53.205Z,47.67
2023-03-04T11:25:00.461Z,47.25
2023-03-04T11:27:07.618Z,49.40
2023-03-04T11:29:16.793Z,52.08
2023-03-04T11:31:24.532Z,51.25
2023-03-04T11:33:34.552Z,50.72
2023-03-04T11:35:43.213Z,50.65
2023-03-04T11:37:51.672Z,49.33
2023-03-04T11:39:59.428Z,49.35
2023-03-04T11:42:07.215Z,51.72
2023-03-04T11:44:10.283Z,53.90
2023-03-04T11:46:54.629Z,51.67
2023-03-04T11:49:25.171Z,55.63
2023-03-04T11:51:35.962Z,52.33
2023-03-04T11:53:49.213Z,49.35
2023-03-04T11:55:59.402Z,51.95
2023-03-04T11:58:24.251Z,47.58
2023-03-04T12:00:37.075Z,49.50
2023-03-04T12:02:51.160Z,50.20
2023-03-04T12:05:19.544Z,47.25
2023-03-04T12:07:55.037Z,46.03
2023-03-04T12:10:07.943Z,48.65
2023-03-04T12:12:32.258Z,51.38
2023-03-04T12:14:44.828Z,47.35
2023-03-04T12:17:03.834Z,46.53
2023-03-04T12:19:23.160Z,51.38
2023-03-04T12:21:41.234Z,49.65
2023-03-04T12:24:10.294Z,47.30
2023-03-04T12:26:26.453Z,50.58
2023-03-04T12:28:41.700Z,53.70
2023-03-04T12:30:57.696Z,46.47
2023-03-04T12:33:13.494Z,56.10
2023-03-04T12:35:33.414Z,46.70
2023-03-04T12:38:08.285Z,53.08
2023-03-04T12:40:27.697Z,45.17
2023-03-04T12:42:41.325Z,53.33
2023-03-04T12:44:49.247Z,51.72
2023-03-04T12:47:11.877Z,52.92
2023-03-04T12:49:33.436Z,44.75
2023-03-04T12:51:44.521Z,54.75
2023-03-04T12:53:59.428Z,53.08
2023-03-04T12:56:05.825Z,50.40
2023-03-04T12:58:17.166Z,50.55
2023-03-04T13:00:32.332Z,52.70
2023-03-04T13:02:57.281Z,50.83
2023-03-04T13:05:08.824Z,48.45
2023-03-04T13:07:22.098Z,53.75
2023-03-04T13:09:30.345Z,52.20
2023-03-04T13:11:49.223Z,51.42
2023-03-04T13:14:04.267Z,50.65
2023-03-04T13:16:27.989Z,55.83
2023-03-04T13:18:34.937Z,51.80
2023-03-04T13:20:40.085Z,50.47
2023-03-04T13:22:54.416Z,53.10
2023-03-04T13:24:58.804Z,52.13
2023-03-04T13:27:01.425Z,51.60
2023-03-04T13:29:33.851Z,52.78
2023-03-04T13:32:00.435Z,53.05
2023-03-04T13:34:05.972Z,53.35
2023-03-04T13:36:28.802Z,51.70
2023-03-04T13:38:36.298Z,58.67
2023-03-04T13:40:40.227Z,49.50
2023-03-04T13:42:44.989Z,50.70
2023-03-04T13:45:06.231Z,51.55
2023-03-04T13:47:10.718Z,55.20
2023-03-04T13:49:24.684Z,51.78
2023-03-04T13:51:30.643Z,50.42
2023-03-04T13:53:42.118Z,55.55
2023-03-04T13:55:44.890Z,55.28
2023-03-04T13:57:51.224Z,54.92
2023-03-04T13:59:56.094Z,53.28
2023-03-04T14:02:01.984Z,58.00
2023-03-04T14:04:13.385Z,50.92
2023-03-04T14:06:22.479Z,54.13
2023-03-04T14:08:26.765Z,51.35
2023-03-04T14:10:29.561Z,57.33
2023-03-04T14:12:34.343Z,53.15
2023-03-04T14:14:43.416Z,56.42
2023-03-04T14:16:50.285Z,55.00
2023-03-04T14:19:01.998Z,57.20
2023-03-04T14:21:05.606Z,55.10
2023-03-04T14:23:24.838Z,56.10
2023-03-04T14:25:29.300Z,54.30
2023-03-04T14:27:35.372Z,63.92
2023-03-04T14:29:38.083Z,57.65
2023-03-04T14:31:40.847Z,64.25
2023-03-04T14:33:47.223Z,56.58
2023-03-04T14:35:52.436Z,56.60
2023-03-04T14:38:01.565Z,56.03
2023-03-04T14:40:08.372Z,56.85
2023-03-04T14:42:15.194Z,55.38
2023-03-04T14:44:27.517Z,61.67
2023-03-04T14:46:34.582Z,60.47
2023-03-04T14:48:37.142Z,55.22
2023-03-04T14:50:49.344Z,65.32
2023-03-04T14:53:14.440Z,71.93
2023-03-04T14:55:24.894Z,58.33
2023-03-04T14:57:33.930Z,55.20
2023-03-04T14:59:37.217Z,56.13
2023-03-04T15:01:39.833Z,55.63
2023-03-04T15:03:44.617Z,60.97
2023-03-04T15:05:47.217Z,59.15
2023-03-04T15:07:53.392Z,65.78
2023-03-04T15:09:57.092Z,68.28
2023-03-04T15:12:03.948Z,69.70
2023-03-04T15:14:07.751Z,69.05
2023-03-04T15:16:13.887Z,76.28
2023-03-04T15:18:26.056Z,67.82
2023-03-04T15:20:30.501Z,69.82
2023-03-04T15:22:34.164Z,74.38
2023-03-04T15:24:36.712Z,65.35
2023-03-04T15:26:41.720Z,63.30
2023-03-04T15:28:45.609Z,64.38
2023-03-04T15:30:48.235Z,64.10
2023-03-04T15:32:51.224Z,63.38
2023-03-04T15:34:53.821Z,64.68
2023-03-04T15:36:58.972Z,70.60
2023-03-04T15:39:01.526Z,63.58
2023-03-04T15:41:04.143Z,72.03
2023-03-04T15:43:10.152Z,61.65
2023-03-04T15:45:22.898Z,64.68
2023-03-04T15:47:25.713Z,67.07
2023-03-04T15:49:29.706Z,62.78
2023-03-04T15:51:33.116Z,61.67
2023-03-04T15:53:39.605Z,63.17
2023-03-04T15:55:46.089Z,61.63
2023-03-04T15:57:54.431Z,65.90
2023-03-04T15:59:56.969Z,65.28
2023-03-04T16:02:00.873Z,61.90
2023-03-04T16:04:03.544Z,64.10
2023-03-04T16:06:10.139Z,56.95
2023-03-04T16:08:14.554Z,55.95
2023-03-04T16:10:22.271Z,66.22
2023-03-04T16:12:27.569Z,60.55
2023-03-04T16:14:30.175Z,66.43
2023-03-04T16:16:32.746Z,72.45
2023-03-04T16:18:36.586Z,59.85
2023-03-04T16:20:40.285Z,67.38
2023-03-04T16:22:44.027Z,75.95
2023-03-04T16:24:49.380Z,65.18
2023-03-04T16:26:52.749Z,63.13
2023-03-04T16:28:55.356Z,56.97
2023-03-04T16:30:58.135Z,64.85
2023-03-04T16:33:00.679Z,61.38
2023-03-04T16:35:05.141Z,63.10
2023-03-04T16:37:14.689Z,68.78
2023-03-04T16:39:22.202Z,66.53
2023-03-04T16:41:28.016Z,63.83
2023-03-04T16:43:30.653Z,69.53
2023-03-04T16:45:36.066Z,74.45
2023-03-04T16:47:38.581Z,69.65
2023-03-04T16:49:41.464Z,73.38
2023-03-04T16:51:49.443Z,65.85
2023-03-04T16:53:54.504Z,65.32
2023-03-04T16:55:59.087Z,66.15
2023-03-04T16:58:01.627Z,62.15
2023-03-04T17:00:06.574Z,60.72
2023-03-04T17:02:14.799Z,66.85
2023-03-04T17:04:17.345Z,60.33
2023-03-04T17:06:21.396Z,64.53
2023-03-04T17:08:25.259Z,67.55
2023-03-04T17:10:27.806Z,63.85
2023-03-04T17:12:30.480Z,63.92
2023-03-04T17:14:33.152Z,69.38
2023-03-04T17:16:36.030Z,64.35
2023-03-04T17:18:39.320Z,71.45
2023-03-04T17:20:42.081Z,58.42
2023-03-04T17:22:45.194Z,60.60
2023-03-04T17:24:49.101Z,62.17
2023-03-04T17:26:51.766Z,60.80
2023-03-04T17:28:54.349Z,60.20
2023-03-04T17:30:56.961Z,73.00
2023-03-04T17:32:59.570Z,69.32
2023-03-04T17:35:03.089Z,75.25
2023-03-04T17:37:05.961Z,67.55
2023-03-04T17:39:08.788Z,63.20
2023-03-04T17:41:16.122Z,61.63
2023-03-04T17:43:18.934Z,71.47
2023-03-04T17:45:21.509Z,61.33
2023-03-04T17:47:24.067Z,61.67
2023-03-04T17:49:27.164Z,60.70
2023-03-04T17:51:31.372Z,70.68
2023-03-04T17:53:34.172Z,56.58
2023-03-04T17:55:36.730Z,62.63
2023-03-04T17:57:40.635Z,53.10
2023-03-04T17:59:43.251Z,61.72
2023-03-04T18:01:46.799Z,60.28
2023-03-04T18:03:49.516Z,60.92
2023-03-04T18:05:52.069Z,58.65
2023-03-04T18:07:54.617Z,61.20
2023-03-04T18:09:57.148Z,57.30
2023-03-04T18:11:59.705Z,60.22
2023-03-04T18:14:03.596Z,67.85
2023-03-04T18:16:06.525Z,55.05
2023-03-04T18:18:09.131Z,57.30
2023-03-04T18:20:12.880Z,65.13
2023-03-04T18:22:15.456Z,53.80
2023-03-04T18:24:18.014Z,55.97
2023-03-04T18:26:23.253Z,53.17
2023-03-04T18:28:26.253Z,53.47
2023-03-04T18:30:30.119Z,60.35
2023-03-04T18:32:49.398Z,57.08
2023-03-04T18:34:53.732Z,62.55
2023-03-04T18:36:56.296Z,64.47
2023-03-04T18:39:00.020Z,61.53
2023-03-04T18:41:04.811Z,58.03
2023-03-04T18:43:08.022Z,56.20
2023-03-04T18:45:11.864Z,56.83
2023-03-04T18:47:15.785Z,62.28
2023-03-04T18:49:21.240Z,63.63
2023-03-04T18:51:23.793Z,57.88
2023-03-04T18:53:28.124Z,51.65
2023-03-04T18:55:32.028Z,57.08
2023-03-04T18:57:34.879Z,55.10
2023-03-04T18:59:41.508Z,56.03
2023-03-04T19:01:44.596Z,57.83
2023-03-04T19:03:50.534Z,58.42
2023-03-04T19:05:53.222Z,60.75
2023-03-04T19:07:56.742Z,49.88
2023-03-04T19:09:59.311Z,55.78
2023-03-04T19:12:02.963Z,60.38
2023-03-04T19:14:05.952Z,59.25
2023-03-04T19:16:09.128Z,54.35
2023-03-04T19:18:11.874Z,56.05
2023-03-04T19:20:17.419Z,60.03
2023-03-04T19:22:20.036Z,59.58
2023-03-04T19:24:22.572Z,56.50
2023-03-04T19:26:25.343Z,60.42
2023-03-04T19:28:27.921Z,60.55
2023-03-04T19:30:30.916Z,57.58
2023-03-04T19:32:34.308Z,62.58
2023-03-04T19:34:36.902Z,53.63
2023-03-04T19:36:40.779Z,72.53
2023-03-04T19:38:43.997Z,58.45
2023-03-04T19:40:46.927Z,63.13
2023-03-04T19:42:49.485Z,50.75
2023-03-04T19:44:52.318Z,59.33
2023-03-04T19:46:54.854Z,54.50
2023-03-04T19:48:57.546Z,55.25
2023-03-04T19:51:00.106Z,59.97
2023-03-04T19:53:04.027Z,64.43
2023-03-04T19:55:07.553Z,63.10
2023-03-04T19:57:10.111Z,53.92
2023-03-04T19:59:12.648Z,59.03
2023-03-04T20:01:22.371Z,57.97
2023-03-04T20:03:25.376Z,58.47
2023-03-04T20:05:29.348Z,65.18
2023-03-04T20:07:31.903Z,69.82
2023-03-04T20:09:37.765Z,66.97
2023-03-04T20:11:54.947Z,72.40
2023-03-04T20:14:01.502Z,77.90
2023-03-04T20:16:09.029Z,65.47
2023-03-04T20:18:11.696Z,62.15
2023-03-04T20:20:14.948Z,63.67
2023-03-04T20:22:17.490Z,62.67
2023-03-04T20:24:22.937Z,67.65
2023-03-04T20:26:27.049Z,57.38
2023-03-04T20:28:29.973Z,68.40
2023-03-04T20:30:32.505Z,62.85
2023-03-04T20:32:35.947Z,73.90
2023-03-04T20:34:38.642Z,58.60
2023-03-04T20:36:41.286Z,66.00
2023-03-04T20:38:44.156Z,59.70
2023-03-04T20:40:46.708Z,61.65
2023-03-04T20:42:50.588Z,59.70
2023-03-04T20:44:53.158Z,59.75
2023-03-04T20:46:55.713Z,51.03
2023-03-04T20:49:00.345Z,57.58
2023-03-04T20:51:02.913Z,59.30
2023-03-04T20:53:05.473Z,61.17
2023-03-04T20:55:08.791Z,60.88
2023-03-04T20:57:11.551Z,60.10
2023-03-04T20:59:15.561Z,58.83
2023-03-04T21:01:18.934Z,67.35
2023-03-04T21:03:21.518Z,61.78
2023-03-04T21:05:24.187Z,63.97
2023-03-04T21:07:26.728Z,61.83
2023-03-04T21:09:29.690Z,65.25
2023-03-04T21:11:32.259Z,65.00
2023-03-04T21:13:36.872Z,58.42
2023-03-04T21:15:47.556Z,62.13
2023-03-04T21:17:50.154Z,65.25
2023-03-04T21:19:53.318Z,64.13
2023-03-04T21:21:57.892Z,66.80
2023-03-04T21:24:01.579Z,65.35
2023-03-04T21:26:04.242Z,63.10
2023-03-04T21:28:06.752Z,74.15
2023-03-04T21:30:11.484Z,70.50
2023-03-04T21:32:24.858Z,68.38
2023-03-04T21:34:33.882Z,64.57
2023-03-04T21:36:36.410Z,59.30
2023-03-04T21:38:39.565Z,64.88
2023-03-04T21:40:42.866Z,64.82
2023-03-04T21:42:45.442Z,59.40
2023-03-04T21:44:50.097Z,66.13
2023-03-04T21:46:53.587Z,66.82
2023-03-04T21:48:57.508Z,63.72
2023-03-04T21:51:03.022Z,62.35
2023-03-04T21:53:05.570Z,65.88
2023-03-04T21:55:08.760Z,64.38
2023-03-04T21:57:11.525Z,59.60
2023-03-04T21:59:17.326Z,63.10
2023-03-04T22:01:21.855Z,65.63
2023-03-04T22:03:24.868Z,67.68
2023-03-04T22:05:28.733Z,75.85
2023-03-04T22:07:31.277Z,67.00
2023-03-04T22:09:34.174Z,69.35
2023-03-04T22:11:36.843Z,62.72
2023-03-04T22:13:39.419Z,63.75
2023-03-04T22:15:43.555Z,67.10
2023-03-04T22:17:46.485Z,72.85
2023-03-04T22:19:49.075Z,68.70
2023-03-04T22:21:53.918Z,68.32
2023-03-04T22:23:56.644Z,66.57
2023-03-04T22:26:03.532Z,61.33
2023-03-04T22:28:06.531Z,63.35
2023-03-04T22:30:10.782Z,58.67
2023-03-04T22:32:13.599Z,60.28
2023-03-04T22:34:18.293Z,62.65
2023-03-04T22:36:20.840Z,64.60
2023-03-04T22:38:24.728Z,64.57
2023-03-04T22:40:27.361Z,64.90
2023-03-04T22:42:29.917Z,64.63
2023-03-04T22:44:34.359Z,68.22
2023-03-04T22:46:39.732Z,60.38
2023-03-04T22:48:42.413Z,61.70
2023-03-04T22:50:44.945Z,66.63
2023-03-04T22:52:48.175Z,57.70
2023-03-04T22:54:52.079Z,66.35
2023-03-04T22:56:54.605Z,62.67
2023-03-04T22:58:57.180Z,72.40
2023-03-04T23:00:59.971Z,65.18
2023-03-04T23:03:02.535Z,71.40
2023-03-04T23:05:05.538Z,61.50
2023-03-04T23:07:08.194Z,63.42
2023-03-04T23:09:10.849Z,61.50
2023-03-04T23:11:17.299Z,66.90
2023-03-04T23:13:19.831Z,65.68
2023-03-04T23:15:25.850Z,60.03
2023-03-04T23:17:28.835Z,63.92
2023-03-04T23:19:31.363Z,65.07
2023-03-04T23:21:34.554Z,74.50
2023-03-04T23:23:37.272Z,60.70
2023-03-04T23:25:39.862Z,64.70
2023-03-04T23:27:44.373Z,59.58
2023-03-04T23:29:46.904Z,62.80
2023-03-04T23:31:50.354Z,63.58
2023-03-04T23:33:57.084Z,67.35
2023-03-04T23:35:59.682Z,67.60
2023-03-04T23:38:02.330Z,68.95
2023-03-04T23:40:05.501Z,70.18
2023-03-04T23:42:08.375Z,70.38
2023-03-04T23:44:13.665Z,69.05
2023-03-04T23:46:16.676Z,70.32
2023-03-04T23:48:19.328Z,65.55
2023-03-04T23:50:21.875Z,68.65
2023-03-04T23:52:24.437Z,68.63
2023-03-04T23:54:27.083Z,70.10
2023-03-04T23:56:31.715Z,78.45
2023-03-04T23:58:35.718Z,69.93
